sensor_id;sensor_type;location;lat;lon;timestamp;P1;durP1;ratioP1;P2;durP2;ratioP2
3407;SDS011;1717;50.240;8.406;2022-12-18T00:02:04;5.60;;;2.67;;
3407;SDS011;1717;50.240;8.406;2022-12-18T00:04:31;2.67;;;2.20;;
3407;SDS011;1717;50.240;8.406;2022-12-18T00:06:57;5.45;;;2.90;;
3407;SDS011;1717;50.240;8.406;2022-12-18T00:09:25;3.05;;;2.72;;
3407;SDS011;1717;50.240;8.406;2022-12-18T00:11:52;4.28;;;2.63;;
3407;SDS011;1717;50.240;8.406;2022-12-18T00:14:19;8.05;;;2.63;;
3407;SDS011;1717;50.240;8.406;2022-12-18T00:16:47;4.25;;;2.40;;
3407;SDS011;1717;50.240;8.406;2022-12-18T00:19:14;3.75;;;2.40;;
3407;SDS011;1717;50.240;8.406;2022-12-18T00:21:41;2.72;;;2.05;;
3407;SDS011;1717;50.240;8.406;2022-12-18T00:24:09;5.20;;;2.50;;
3407;SDS011;1717;50.240;8.406;2022-12-18T00:26:37;7.63;;;3.40;;
3407;SDS011;1717;50.240;8.406;2022-12-18T00:29:05;3.63;;;2.13;;
3407;SDS011;1717;50.240;8.406;2022-12-18T00:31:33;2.20;;;2.00;;
3407;SDS011;1717;50.240;8.406;2022-12-18T00:34:01;4.28;;;2.30;;
3407;SDS011;1717;50.240;8.406;2022-12-18T00:36:30;4.35;;;2.85;;
3407;SDS011;1717;50.240;8.406;2022-12-18T00:38:58;3.33;;;2.00;;
3407;SDS011;1717;50.240;8.406;2022-12-18T00:41:27;4.60;;;2.05;;
3407;SDS011;1717;50.240;8.406;2022-12-18T00:44:12;2.95;;;2.15;;
3407;SDS011;1717;50.240;8.406;2022-12-18T00:46:40;3.95;;;3.17;;
3407;SDS011;1717;50.240;8.406;2022-12-18T00:49:13;3.67;;;2.47;;
3407;SDS011;1717;50.240;8.406;2022-12-18T00:51:40;3.40;;;2.42;;
3407;SDS011;1717;50.240;8.406;2022-12-18T00:54:07;3.03;;;2.65;;
3407;SDS011;1717;50.240;8.406;2022-12-18T00:56:35;3.95;;;2.20;;
3407;SDS011;1717;50.240;8.406;2022-12-18T00:59:03;6.00;;;3.67;;
3407;SDS011;1717;50.240;8.406;2022-12-18T01:01:30;3.83;;;2.28;;
3407;SDS011;1717;50.240;8.406;2022-12-18T01:03:57;6.10;;;2.80;;
3407;SDS011;1717;50.240;8.406;2022-12-18T01:06:27;2.45;;;2.15;;
3407;SDS011;1717;50.240;8.406;2022-12-18T01:08:54;2.88;;;2.45;;
3407;SDS011;1717;50.240;8.406;2022-12-18T01:11:21;3.92;;;2.78;;
3407;SDS011;1717;50.240;8.406;2022-12-18T01:13:48;3.75;;;2.20;;
3407;SDS011;1717;50.240;8.406;2022-12-18T01:16:16;7.13;;;2.83;;
3407;SDS011;1717;50.240;8.406;2022-12-18T01:18:44;5.78;;;3.08;;
3407;SDS011;1717;50.240;8.406;2022-12-18T01:21:12;3.47;;;2.47;;
3407;SDS011;1717;50.240;8.406;2022-12-18T01:23:45;4.20;;;2.85;;
3407;SDS011;1717;50.240;8.406;2022-12-18T01:26:13;3.67;;;2.25;;
3407;SDS011;1717;50.240;8.406;2022-12-18T01:28:41;2.78;;;2.17;;
3407;SDS011;1717;50.240;8.406;2022-12-18T01:31:13;4.70;;;2.42;;
3407;SDS011;1717;50.240;8.406;2022-12-18T01:33:42;5.13;;;2.83;;
3407;SDS011;1717;50.240;8.406;2022-12-18T01:36:14;4.18;;;2.33;;
3407;SDS011;1717;50.240;8.406;2022-12-18T01:38:42;2.80;;;2.00;;
3407;SDS011;1717;50.240;8.406;2022-12-18T01:41:10;3.22;;;2.45;;
3407;SDS011;1717;50.240;8.406;2022-12-18T01:43:44;3.17;;;2.30;;
3407;SDS011;1717;50.240;8.406;2022-12-18T01:46:13;3.92;;;2.05;;
3407;SDS011;1717;50.240;8.406;2022-12-18T01:48:41;2.42;;;2.15;;
3407;SDS011;1717;50.240;8.406;2022-12-18T01:51:09;5.40;;;2.67;;
3407;SDS011;1717;50.240;8.406;2022-12-18T01:53:37;5.00;;;2.67;;
3407;SDS011;1717;50.240;8.406;2022-12-18T01:56:06;7.68;;;2.70;;
3407;SDS011;1717;50.240;8.406;2022-12-18T01:58:37;5.50;;;3.08;;
3407;SDS011;1717;50.240;8.406;2022-12-18T02:01:09;6.90;;;3.25;;
3407;SDS011;1717;50.240;8.406;2022-12-18T02:03:36;8.13;;;3.20;;
3407;SDS011;1717;50.240;8.406;2022-12-18T02:06:05;4.03;;;2.50;;
3407;SDS011;1717;50.240;8.406;2022-12-18T02:08:37;3.17;;;2.40;;
3407;SDS011;1717;50.240;8.406;2022-12-18T02:11:10;9.77;;;3.20;;
3407;SDS011;1717;50.240;8.406;2022-12-18T02:13:46;7.00;;;4.07;;
3407;SDS011;1717;50.240;8.406;2022-12-18T02:16:24;4.28;;;3.10;;
3407;SDS011;1717;50.240;8.406;2022-12-18T02:18:57;5.03;;;3.40;;
3407;SDS011;1717;50.240;8.406;2022-12-18T02:21:28;8.82;;;3.80;;
3407;SDS011;1717;50.240;8.406;2022-12-18T02:24:07;9.38;;;3.75;;
3407;SDS011;1717;50.240;8.406;2022-12-18T02:26:46;6.25;;;2.70;;
3407;SDS011;1717;50.240;8.406;2022-12-18T02:29:16;7.03;;;2.90;;
3407;SDS011;1717;50.240;8.406;2022-12-18T02:31:53;5.05;;;3.83;;
3407;SDS011;1717;50.240;8.406;2022-12-18T02:34:26;5.38;;;3.25;;
3407;SDS011;1717;50.240;8.406;2022-12-18T02:36:57;4.68;;;2.75;;
3407;SDS011;1717;50.240;8.406;2022-12-18T02:39:27;6.00;;;2.95;;
3407;SDS011;1717;50.240;8.406;2022-12-18T02:41:56;5.15;;;2.85;;
3407;SDS011;1717;50.240;8.406;2022-12-18T02:44:24;6.53;;;3.80;;
3407;SDS011;1717;50.240;8.406;2022-12-18T02:46:52;7.22;;;3.85;;
3407;SDS011;1717;50.240;8.406;2022-12-18T02:49:22;7.05;;;3.10;;
3407;SDS011;1717;50.240;8.406;2022-12-18T02:52:01;5.30;;;2.63;;
3407;SDS011;1717;50.240;8.406;2022-12-18T02:54:36;4.63;;;3.50;;
3407;SDS011;1717;50.240;8.406;2022-12-18T02:57:16;7.60;;;3.63;;
3407;SDS011;1717;50.240;8.406;2022-12-18T02:59:52;7.07;;;3.17;;
3407;SDS011;1717;50.240;8.406;2022-12-18T03:02:25;7.57;;;3.40;;
3407;SDS011;1717;50.240;8.406;2022-12-18T03:04:57;6.43;;;3.90;;
3407;SDS011;1717;50.240;8.406;2022-12-18T03:07:33;8.95;;;3.47;;
3407;SDS011;1717;50.240;8.406;2022-12-18T03:10:03;5.15;;;3.70;;
3407;SDS011;1717;50.240;8.406;2022-12-18T03:12:34;7.78;;;3.90;;
3407;SDS011;1717;50.240;8.406;2022-12-18T03:15:04;14.65;;;5.00;;
3407;SDS011;1717;50.240;8.406;2022-12-18T03:17:36;6.72;;;4.65;;
3407;SDS011;1717;50.240;8.406;2022-12-18T03:20:09;7.78;;;4.20;;
3407;SDS011;1717;50.240;8.406;2022-12-18T03:22:41;11.95;;;5.32;;
3407;SDS011;1717;50.240;8.406;2022-12-18T03:25:13;8.98;;;5.28;;
3407;SDS011;1717;50.240;8.406;2022-12-18T03:27:45;7.82;;;4.63;;
3407;SDS011;1717;50.240;8.406;2022-12-18T03:30:15;12.73;;;4.95;;
3407;SDS011;1717;50.240;8.406;2022-12-18T03:32:43;6.55;;;3.50;;
3407;SDS011;1717;50.240;8.406;2022-12-18T03:35:14;10.05;;;4.60;;
3407;SDS011;1717;50.240;8.406;2022-12-18T03:37:47;5.82;;;3.72;;
3407;SDS011;1717;50.240;8.406;2022-12-18T03:40:14;5.82;;;3.85;;
3407;SDS011;1717;50.240;8.406;2022-12-18T03:42:43;7.70;;;3.42;;
3407;SDS011;1717;50.240;8.406;2022-12-18T03:45:18;6.00;;;3.60;;
3407;SDS011;1717;50.240;8.406;2022-12-18T03:47:52;8.52;;;3.72;;
3407;SDS011;1717;50.240;8.406;2022-12-18T03:50:27;4.80;;;2.58;;
3407;SDS011;1717;50.240;8.406;2022-12-18T03:53:04;7.57;;;3.92;;
3407;SDS011;1717;50.240;8.406;2022-12-18T03:55:40;4.28;;;3.45;;
3407;SDS011;1717;50.240;8.406;2022-12-18T03:58:09;5.55;;;3.60;;
3407;SDS011;1717;50.240;8.406;2022-12-18T04:00:39;6.35;;;3.45;;
3407;SDS011;1717;50.240;8.406;2022-12-18T04:03:07;9.65;;;3.55;;
3407;SDS011;1717;50.240;8.406;2022-12-18T04:05:36;8.40;;;3.78;;
3407;SDS011;1717;50.240;8.406;2022-12-18T04:08:03;5.82;;;3.38;;
3407;SDS011;1717;50.240;8.406;2022-12-18T04:10:31;5.40;;;4.15;;
3407;SDS011;1717;50.240;8.406;2022-12-18T04:13:00;6.85;;;3.88;;
3407;SDS011;1717;50.240;8.406;2022-12-18T04:15:28;6.47;;;2.85;;
3407;SDS011;1717;50.240;8.406;2022-12-18T04:17:56;6.70;;;3.00;;
3407;SDS011;1717;50.240;8.406;2022-12-18T04:20:22;6.45;;;3.83;;
3407;SDS011;1717;50.240;8.406;2022-12-18T04:22:49;9.75;;;3.35;;
3407;SDS011;1717;50.240;8.406;2022-12-18T04:25:16;4.63;;;3.45;;
3407;SDS011;1717;50.240;8.406;2022-12-18T04:27:43;4.07;;;2.38;;
3407;SDS011;1717;50.240;8.406;2022-12-18T04:30:10;6.47;;;3.78;;
3407;SDS011;1717;50.240;8.406;2022-12-18T04:32:39;5.32;;;3.20;;
3407;SDS011;1717;50.240;8.406;2022-12-18T04:35:07;5.40;;;4.32;;
3407;SDS011;1717;50.240;8.406;2022-12-18T04:37:35;5.10;;;4.20;;
3407;SDS011;1717;50.240;8.406;2022-12-18T04:40:02;4.45;;;3.38;;
3407;SDS011;1717;50.240;8.406;2022-12-18T04:42:30;5.32;;;3.80;;
3407;SDS011;1717;50.240;8.406;2022-12-18T04:44:57;6.38;;;3.60;;
3407;SDS011;1717;50.240;8.406;2022-12-18T04:47:23;5.80;;;3.45;;
3407;SDS011;1717;50.240;8.406;2022-12-18T04:49:51;5.70;;;2.95;;
3407;SDS011;1717;50.240;8.406;2022-12-18T04:52:18;5.03;;;3.30;;
3407;SDS011;1717;50.240;8.406;2022-12-18T04:54:45;5.55;;;3.50;;
3407;SDS011;1717;50.240;8.406;2022-12-18T04:57:12;6.55;;;3.80;;
3407;SDS011;1717;50.240;8.406;2022-12-18T04:59:39;6.93;;;3.85;;
3407;SDS011;1717;50.240;8.406;2022-12-18T05:02:05;7.78;;;3.75;;
3407;SDS011;1717;50.240;8.406;2022-12-18T05:04:32;8.40;;;4.47;;
3407;SDS011;1717;50.240;8.406;2022-12-18T05:07:00;8.23;;;4.10;;
3407;SDS011;1717;50.240;8.406;2022-12-18T05:09:27;8.73;;;4.15;;
3407;SDS011;1717;50.240;8.406;2022-12-18T05:11:54;8.23;;;4.45;;
3407;SDS011;1717;50.240;8.406;2022-12-18T05:14:21;10.05;;;3.95;;
3407;SDS011;1717;50.240;8.406;2022-12-18T05:16:48;12.10;;;5.13;;
3407;SDS011;1717;50.240;8.406;2022-12-18T05:19:15;8.73;;;3.75;;
3407;SDS011;1717;50.240;8.406;2022-12-18T05:21:41;8.43;;;4.57;;
3407;SDS011;1717;50.240;8.406;2022-12-18T05:24:10;8.30;;;4.60;;
3407;SDS011;1717;50.240;8.406;2022-12-18T05:26:36;10.70;;;5.10;;
3407;SDS011;1717;50.240;8.406;2022-12-18T05:29:03;9.50;;;4.72;;
3407;SDS011;1717;50.240;8.406;2022-12-18T05:31:30;11.05;;;4.38;;
3407;SDS011;1717;50.240;8.406;2022-12-18T05:33:57;9.77;;;4.75;;
3407;SDS011;1717;50.240;8.406;2022-12-18T05:36:24;6.68;;;4.55;;
3407;SDS011;1717;50.240;8.406;2022-12-18T05:38:51;7.57;;;4.43;;
3407;SDS011;1717;50.240;8.406;2022-12-18T05:41:19;6.10;;;3.78;;
3407;SDS011;1717;50.240;8.406;2022-12-18T05:43:46;7.18;;;4.05;;
3407;SDS011;1717;50.240;8.406;2022-12-18T05:46:14;6.53;;;4.28;;
3407;SDS011;1717;50.240;8.406;2022-12-18T05:48:42;6.88;;;3.65;;
3407;SDS011;1717;50.240;8.406;2022-12-18T05:51:11;5.25;;;3.72;;
3407;SDS011;1717;50.240;8.406;2022-12-18T05:53:39;4.97;;;3.45;;
3407;SDS011;1717;50.240;8.406;2022-12-18T05:56:08;6.03;;;3.47;;
3407;SDS011;1717;50.240;8.406;2022-12-18T05:58:40;6.03;;;3.45;;
3407;SDS011;1717;50.240;8.406;2022-12-18T06:01:08;5.43;;;3.20;;
3407;SDS011;1717;50.240;8.406;2022-12-18T06:03:35;8.55;;;3.58;;
3407;SDS011;1717;50.240;8.406;2022-12-18T06:06:03;5.32;;;4.30;;
3407;SDS011;1717;50.240;8.406;2022-12-18T06:08:30;5.28;;;3.55;;
3407;SDS011;1717;50.240;8.406;2022-12-18T06:10:57;15.10;;;4.88;;
3407;SDS011;1717;50.240;8.406;2022-12-18T06:13:23;7.85;;;3.85;;
3407;SDS011;1717;50.240;8.406;2022-12-18T06:15:51;5.18;;;3.10;;
3407;SDS011;1717;50.240;8.406;2022-12-18T06:18:18;5.70;;;3.10;;
3407;SDS011;1717;50.240;8.406;2022-12-18T06:20:51;5.55;;;3.58;;
3407;SDS011;1717;50.240;8.406;2022-12-18T06:23:20;4.90;;;3.17;;
3407;SDS011;1717;50.240;8.406;2022-12-18T06:25:47;5.15;;;3.63;;
3407;SDS011;1717;50.240;8.406;2022-12-18T06:28:14;5.60;;;2.92;;
3407;SDS011;1717;50.240;8.406;2022-12-18T06:30:42;7.15;;;4.00;;
3407;SDS011;1717;50.240;8.406;2022-12-18T06:33:11;5.57;;;2.67;;
3407;SDS011;1717;50.240;8.406;2022-12-18T06:35:38;4.78;;;2.85;;
3407;SDS011;1717;50.240;8.406;2022-12-18T06:38:04;5.63;;;3.67;;
3407;SDS011;1717;50.240;8.406;2022-12-18T06:40:31;6.10;;;2.95;;
3407;SDS011;1717;50.240;8.406;2022-12-18T06:42:58;3.85;;;3.05;;
3407;SDS011;1717;50.240;8.406;2022-12-18T06:45:25;3.50;;;2.35;;
3407;SDS011;1717;50.240;8.406;2022-12-18T06:47:52;5.25;;;2.60;;
3407;SDS011;1717;50.240;8.406;2022-12-18T06:50:21;4.03;;;3.35;;
3407;SDS011;1717;50.240;8.406;2022-12-18T06:52:48;3.95;;;2.80;;
3407;SDS011;1717;50.240;8.406;2022-12-18T06:55:15;6.47;;;3.15;;
3407;SDS011;1717;50.240;8.406;2022-12-18T06:57:43;3.90;;;2.40;;
3407;SDS011;1717;50.240;8.406;2022-12-18T07:00:10;5.55;;;3.10;;
3407;SDS011;1717;50.240;8.406;2022-12-18T07:02:38;8.77;;;3.30;;
3407;SDS011;1717;50.240;8.406;2022-12-18T07:05:05;9.45;;;3.65;;
3407;SDS011;1717;50.240;8.406;2022-12-18T07:07:34;5.10;;;2.88;;
3407;SDS011;1717;50.240;8.406;2022-12-18T07:10:01;4.07;;;2.97;;
3407;SDS011;1717;50.240;8.406;2022-12-18T07:12:28;4.28;;;2.92;;
3407;SDS011;1717;50.240;8.406;2022-12-18T07:14:55;9.75;;;4.13;;
3407;SDS011;1717;50.240;8.406;2022-12-18T07:17:22;5.80;;;3.75;;
3407;SDS011;1717;50.240;8.406;2022-12-18T07:19:49;8.73;;;5.00;;
3407;SDS011;1717;50.240;8.406;2022-12-18T07:22:16;9.85;;;5.60;;
3407;SDS011;1717;50.240;8.406;2022-12-18T07:24:44;5.05;;;4.55;;
3407;SDS011;1717;50.240;8.406;2022-12-18T07:27:10;7.28;;;4.18;;
3407;SDS011;1717;50.240;8.406;2022-12-18T07:29:37;8.68;;;4.43;;
3407;SDS011;1717;50.240;8.406;2022-12-18T07:32:04;6.95;;;4.28;;
3407;SDS011;1717;50.240;8.406;2022-12-18T07:34:32;5.80;;;4.10;;
3407;SDS011;1717;50.240;8.406;2022-12-18T07:36:58;8.50;;;4.90;;
3407;SDS011;1717;50.240;8.406;2022-12-18T07:39:25;6.18;;;4.13;;
3407;SDS011;1717;50.240;8.406;2022-12-18T07:41:54;6.65;;;3.50;;
3407;SDS011;1717;50.240;8.406;2022-12-18T07:44:38;5.43;;;3.70;;
3407;SDS011;1717;50.240;8.406;2022-12-18T07:47:04;5.60;;;3.40;;
3407;SDS011;1717;50.240;8.406;2022-12-18T07:49:31;3.97;;;3.05;;
3407;SDS011;1717;50.240;8.406;2022-12-18T07:51:58;4.18;;;2.38;;
3407;SDS011;1717;50.240;8.406;2022-12-18T07:54:25;5.40;;;2.92;;
3407;SDS011;1717;50.240;8.406;2022-12-18T07:56:53;6.85;;;3.45;;
3407;SDS011;1717;50.240;8.406;2022-12-18T07:59:20;3.80;;;2.70;;
3407;SDS011;1717;50.240;8.406;2022-12-18T08:01:47;3.30;;;2.47;;
3407;SDS011;1717;50.240;8.406;2022-12-18T08:04:13;3.97;;;2.50;;
3407;SDS011;1717;50.240;8.406;2022-12-18T08:06:40;4.45;;;2.10;;
3407;SDS011;1717;50.240;8.406;2022-12-18T08:09:07;3.95;;;2.83;;
3407;SDS011;1717;50.240;8.406;2022-12-18T08:11:35;2.25;;;2.05;;
3407;SDS011;1717;50.240;8.406;2022-12-18T08:14:04;5.28;;;3.13;;
3407;SDS011;1717;50.240;8.406;2022-12-18T08:16:30;6.47;;;2.75;;
3407;SDS011;1717;50.240;8.406;2022-12-18T08:18:57;3.78;;;2.75;;
3407;SDS011;1717;50.240;8.406;2022-12-18T08:21:25;4.90;;;3.53;;
3407;SDS011;1717;50.240;8.406;2022-12-18T08:23:53;4.95;;;2.42;;
3407;SDS011;1717;50.240;8.406;2022-12-18T08:26:22;5.28;;;3.10;;
3407;SDS011;1717;50.240;8.406;2022-12-18T08:28:50;3.95;;;2.70;;
3407;SDS011;1717;50.240;8.406;2022-12-18T08:31:19;4.30;;;2.88;;
3407;SDS011;1717;50.240;8.406;2022-12-18T08:33:47;3.50;;;2.00;;
3407;SDS011;1717;50.240;8.406;2022-12-18T08:36:15;3.85;;;2.20;;
3407;SDS011;1717;50.240;8.406;2022-12-18T08:38:42;4.13;;;3.08;;
3407;SDS011;1717;50.240;8.406;2022-12-18T08:41:10;3.70;;;2.28;;
3407;SDS011;1717;50.240;8.406;2022-12-18T08:43:38;2.75;;;2.20;;
3407;SDS011;1717;50.240;8.406;2022-12-18T08:46:25;3.65;;;2.08;;
3407;SDS011;1717;50.240;8.406;2022-12-18T08:48:57;3.80;;;2.50;;
3407;SDS011;1717;50.240;8.406;2022-12-18T08:51:24;4.00;;;3.05;;
3407;SDS011;1717;50.240;8.406;2022-12-18T08:53:51;5.47;;;2.75;;
3407;SDS011;1717;50.240;8.406;2022-12-18T08:56:18;4.68;;;3.55;;
3407;SDS011;1717;50.240;8.406;2022-12-18T08:58:45;5.45;;;3.28;;
3407;SDS011;1717;50.240;8.406;2022-12-18T09:01:12;3.60;;;2.78;;
3407;SDS011;1717;50.240;8.406;2022-12-18T09:03:41;5.90;;;3.47;;
3407;SDS011;1717;50.240;8.406;2022-12-18T09:06:08;5.55;;;3.17;;
3407;SDS011;1717;50.240;8.406;2022-12-18T09:08:35;6.68;;;4.45;;
3407;SDS011;1717;50.240;8.406;2022-12-18T09:11:03;7.35;;;4.35;;
3407;SDS011;1717;50.240;8.406;2022-12-18T09:13:31;6.72;;;4.15;;
3407;SDS011;1717;50.240;8.406;2022-12-18T09:15:58;10.52;;;4.68;;
3407;SDS011;1717;50.240;8.406;2022-12-18T09:18:25;7.13;;;5.18;;
3407;SDS011;1717;50.240;8.406;2022-12-18T09:20:53;9.63;;;5.60;;
3407;SDS011;1717;50.240;8.406;2022-12-18T09:23:20;9.50;;;5.65;;
3407;SDS011;1717;50.240;8.406;2022-12-18T09:25:47;8.02;;;5.18;;
3407;SDS011;1717;50.240;8.406;2022-12-18T09:28:15;8.80;;;5.38;;
3407;SDS011;1717;50.240;8.406;2022-12-18T09:30:43;8.30;;;5.72;;
3407;SDS011;1717;50.240;8.406;2022-12-18T09:33:12;10.90;;;6.88;;
3407;SDS011;1717;50.240;8.406;2022-12-18T09:35:39;15.05;;;8.88;;
3407;SDS011;1717;50.240;8.406;2022-12-18T09:38:08;19.27;;;9.70;;
3407;SDS011;1717;50.240;8.406;2022-12-18T09:40:39;13.23;;;8.88;;
3407;SDS011;1717;50.240;8.406;2022-12-18T09:43:09;16.45;;;9.13;;
3407;SDS011;1717;50.240;8.406;2022-12-18T09:45:42;19.55;;;10.85;;
3407;SDS011;1717;50.240;8.406;2022-12-18T09:48:14;15.65;;;8.52;;
3407;SDS011;1717;50.240;8.406;2022-12-18T09:50:44;20.25;;;12.48;;
3407;SDS011;1717;50.240;8.406;2022-12-18T09:53:14;20.08;;;11.52;;
3407;SDS011;1717;50.240;8.406;2022-12-18T09:55:46;19.20;;;12.20;;
3407;SDS011;1717;50.240;8.406;2022-12-18T09:58:16;20.90;;;11.57;;
3407;SDS011;1717;50.240;8.406;2022-12-18T10:00:47;21.83;;;11.82;;
3407;SDS011;1717;50.240;8.406;2022-12-18T10:03:15;23.02;;;12.80;;
3407;SDS011;1717;50.240;8.406;2022-12-18T10:05:44;22.73;;;13.35;;
3407;SDS011;1717;50.240;8.406;2022-12-18T10:08:22;20.65;;;13.02;;
3407;SDS011;1717;50.240;8.406;2022-12-18T10:11:01;23.73;;;13.40;;
3407;SDS011;1717;50.240;8.406;2022-12-18T10:13:46;24.58;;;14.45;;
3407;SDS011;1717;50.240;8.406;2022-12-18T10:16:19;24.73;;;13.30;;
3407;SDS011;1717;50.240;8.406;2022-12-18T10:18:59;25.10;;;13.88;;
3407;SDS011;1717;50.240;8.406;2022-12-18T10:21:37;32.97;;;15.00;;
3407;SDS011;1717;50.240;8.406;2022-12-18T10:24:12;18.80;;;13.43;;
3407;SDS011;1717;50.240;8.406;2022-12-18T10:26:43;24.10;;;16.30;;
3407;SDS011;1717;50.240;8.406;2022-12-18T10:29:11;25.25;;;15.05;;
3407;SDS011;1717;50.240;8.406;2022-12-18T10:31:39;28.25;;;15.90;;
3407;SDS011;1717;50.240;8.406;2022-12-18T10:34:09;26.25;;;15.55;;
3407;SDS011;1717;50.240;8.406;2022-12-18T10:36:44;29.38;;;15.68;;
3407;SDS011;1717;50.240;8.406;2022-12-18T10:39:16;32.55;;;16.00;;
3407;SDS011;1717;50.240;8.406;2022-12-18T10:41:45;32.55;;;16.75;;
3407;SDS011;1717;50.240;8.406;2022-12-18T10:44:16;27.10;;;18.20;;
3407;SDS011;1717;50.240;8.406;2022-12-18T10:46:44;32.65;;;17.33;;
3407;SDS011;1717;50.240;8.406;2022-12-18T10:49:22;29.02;;;17.15;;
3407;SDS011;1717;50.240;8.406;2022-12-18T10:51:51;29.85;;;17.15;;
3407;SDS011;1717;50.240;8.406;2022-12-18T10:54:33;29.35;;;17.75;;
3407;SDS011;1717;50.240;8.406;2022-12-18T10:57:14;32.83;;;18.73;;
3407;SDS011;1717;50.240;8.406;2022-12-18T10:59:49;25.45;;;15.88;;
3407;SDS011;1717;50.240;8.406;2022-12-18T11:02:24;31.58;;;17.90;;
3407;SDS011;1717;50.240;8.406;2022-12-18T11:04:53;27.83;;;17.65;;
3407;SDS011;1717;50.240;8.406;2022-12-18T11:07:21;25.35;;;16.55;;
3407;SDS011;1717;50.240;8.406;2022-12-18T11:10:00;32.28;;;17.02;;
3407;SDS011;1717;50.240;8.406;2022-12-18T11:12:29;35.05;;;19.40;;
3407;SDS011;1717;50.240;8.406;2022-12-18T11:14:56;33.90;;;19.17;;
3407;SDS011;1717;50.240;8.406;2022-12-18T11:17:25;27.50;;;16.42;;
3407;SDS011;1717;50.240;8.406;2022-12-18T11:19:55;33.25;;;18.85;;
3407;SDS011;1717;50.240;8.406;2022-12-18T11:22:24;29.77;;;18.05;;
3407;SDS011;1717;50.240;8.406;2022-12-18T11:24:53;38.67;;;19.70;;
3407;SDS011;1717;50.240;8.406;2022-12-18T11:27:24;37.45;;;18.48;;
3407;SDS011;1717;50.240;8.406;2022-12-18T11:29:51;34.38;;;18.92;;
3407;SDS011;1717;50.240;8.406;2022-12-18T11:32:26;33.88;;;19.10;;
3407;SDS011;1717;50.240;8.406;2022-12-18T11:34:59;32.95;;;19.30;;
3407;SDS011;1717;50.240;8.406;2022-12-18T11:37:30;42.65;;;20.73;;
3407;SDS011;1717;50.240;8.406;2022-12-18T11:39:59;38.10;;;21.05;;
3407;SDS011;1717;50.240;8.406;2022-12-18T11:42:32;38.72;;;21.20;;
3407;SDS011;1717;50.240;8.406;2022-12-18T11:45:08;37.17;;;21.25;;
3407;SDS011;1717;50.240;8.406;2022-12-18T11:47:56;33.80;;;19.85;;
3407;SDS011;1717;50.240;8.406;2022-12-18T11:50:29;37.25;;;20.08;;
3407;SDS011;1717;50.240;8.406;2022-12-18T11:52:59;31.63;;;18.70;;
3407;SDS011;1717;50.240;8.406;2022-12-18T11:55:29;36.47;;;20.85;;
3407;SDS011;1717;50.240;8.406;2022-12-18T11:58:05;39.97;;;22.58;;
3407;SDS011;1717;50.240;8.406;2022-12-18T12:00:39;38.10;;;21.40;;
3407;SDS011;1717;50.240;8.406;2022-12-18T12:03:24;35.30;;;22.08;;
3407;SDS011;1717;50.240;8.406;2022-12-18T12:06:08;31.23;;;19.38;;
3407;SDS011;1717;50.240;8.406;2022-12-18T12:08:45;33.80;;;18.15;;
3407;SDS011;1717;50.240;8.406;2022-12-18T12:11:32;38.22;;;20.42;;
3407;SDS011;1717;50.240;8.406;2022-12-18T12:14:15;37.03;;;19.45;;
3407;SDS011;1717;50.240;8.406;2022-12-18T12:16:53;29.90;;;17.63;;
3407;SDS011;1717;50.240;8.406;2022-12-18T12:19:32;28.55;;;18.48;;
3407;SDS011;1717;50.240;8.406;2022-12-18T12:22:07;31.85;;;18.60;;
3407;SDS011;1717;50.240;8.406;2022-12-18T12:24:48;29.13;;;17.50;;
3407;SDS011;1717;50.240;8.406;2022-12-18T12:27:26;26.83;;;16.08;;
3407;SDS011;1717;50.240;8.406;2022-12-18T12:30:03;31.40;;;16.92;;
3407;SDS011;1717;50.240;8.406;2022-12-18T12:32:43;24.13;;;15.88;;
3407;SDS011;1717;50.240;8.406;2022-12-18T12:35:23;30.50;;;16.05;;
3407;SDS011;1717;50.240;8.406;2022-12-18T12:38:01;25.60;;;17.48;;
3407;SDS011;1717;50.240;8.406;2022-12-18T12:40:35;25.70;;;13.98;;
3407;SDS011;1717;50.240;8.406;2022-12-18T12:43:10;27.40;;;15.95;;
3407;SDS011;1717;50.240;8.406;2022-12-18T12:45:46;29.77;;;16.48;;
3407;SDS011;1717;50.240;8.406;2022-12-18T12:48:18;27.92;;;15.40;;
3407;SDS011;1717;50.240;8.406;2022-12-18T12:50:53;32.85;;;16.90;;
3407;SDS011;1717;50.240;8.406;2022-12-18T12:53:23;22.88;;;14.52;;
3407;SDS011;1717;50.240;8.406;2022-12-18T12:55:56;27.90;;;16.73;;
3407;SDS011;1717;50.240;8.406;2022-12-18T12:58:26;28.08;;;15.52;;
3407;SDS011;1717;50.240;8.406;2022-12-18T13:01:03;28.10;;;16.30;;
3407;SDS011;1717;50.240;8.406;2022-12-18T13:03:41;28.77;;;16.60;;
3407;SDS011;1717;50.240;8.406;2022-12-18T13:06:13;30.80;;;16.58;;
3407;SDS011;1717;50.240;8.406;2022-12-18T13:08:52;27.80;;;16.40;;
3407;SDS011;1717;50.240;8.406;2022-12-18T13:11:32;23.23;;;15.77;;
3407;SDS011;1717;50.240;8.406;2022-12-18T13:14:20;31.42;;;17.35;;
3407;SDS011;1717;50.240;8.406;2022-12-18T13:16:51;28.27;;;16.80;;
3407;SDS011;1717;50.240;8.406;2022-12-18T13:19:39;28.52;;;16.55;;
3407;SDS011;1717;50.240;8.406;2022-12-18T13:22:12;30.85;;;17.10;;
3407;SDS011;1717;50.240;8.406;2022-12-18T13:24:47;32.60;;;17.25;;
3407;SDS011;1717;50.240;8.406;2022-12-18T13:36:12;40.72;;;17.35;;
3407;SDS011;1717;50.240;8.406;2022-12-18T13:38:42;34.17;;;18.65;;
3407;SDS011;1717;50.240;8.406;2022-12-18T13:41:23;35.17;;;18.33;;
3407;SDS011;1717;50.240;8.406;2022-12-18T13:43:51;40.22;;;17.98;;
3407;SDS011;1717;50.240;8.406;2022-12-18T13:46:23;37.97;;;20.55;;
3407;SDS011;1717;50.240;8.406;2022-12-18T13:49:00;32.60;;;17.23;;
3407;SDS011;1717;50.240;8.406;2022-12-18T13:51:30;30.33;;;18.48;;
3407;SDS011;1717;50.240;8.406;2022-12-18T13:53:59;37.25;;;19.50;;
3407;SDS011;1717;50.240;8.406;2022-12-18T13:56:28;38.42;;;22.40;;
3407;SDS011;1717;50.240;8.406;2022-12-18T13:59:04;35.47;;;20.58;;
3407;SDS011;1717;50.240;8.406;2022-12-18T14:01:41;40.08;;;20.33;;
3407;SDS011;1717;50.240;8.406;2022-12-18T14:04:11;37.85;;;19.52;;
3407;SDS011;1717;50.240;8.406;2022-12-18T14:06:42;32.35;;;17.90;;
3407;SDS011;1717;50.240;8.406;2022-12-18T14:09:12;39.60;;;18.88;;
3407;SDS011;1717;50.240;8.406;2022-12-18T14:11:45;32.25;;;18.48;;
3407;SDS011;1717;50.240;8.406;2022-12-18T14:14:13;30.70;;;15.85;;
3407;SDS011;1717;50.240;8.406;2022-12-18T14:16:41;37.72;;;21.17;;
3407;SDS011;1717;50.240;8.406;2022-12-18T14:19:12;33.45;;;17.35;;
3407;SDS011;1717;50.240;8.406;2022-12-18T14:21:45;33.35;;;17.00;;
3407;SDS011;1717;50.240;8.406;2022-12-18T14:24:14;32.20;;;18.38;;
3407;SDS011;1717;50.240;8.406;2022-12-18T14:26:43;34.33;;;16.85;;
3407;SDS011;1717;50.240;8.406;2022-12-18T14:29:23;34.75;;;19.00;;
3407;SDS011;1717;50.240;8.406;2022-12-18T14:32:04;39.70;;;17.30;;
3407;SDS011;1717;50.240;8.406;2022-12-18T14:34:34;33.72;;;17.05;;
3407;SDS011;1717;50.240;8.406;2022-12-18T14:37:01;33.00;;;17.27;;
3407;SDS011;1717;50.240;8.406;2022-12-18T14:39:28;36.78;;;19.48;;
3407;SDS011;1717;50.240;8.406;2022-12-18T14:41:55;36.83;;;20.70;;
3407;SDS011;1717;50.240;8.406;2022-12-18T14:44:22;35.08;;;18.45;;
3407;SDS011;1717;50.240;8.406;2022-12-18T14:46:49;33.05;;;18.10;;
3407;SDS011;1717;50.240;8.406;2022-12-18T14:49:21;33.92;;;18.98;;
3407;SDS011;1717;50.240;8.406;2022-12-18T14:51:54;39.67;;;20.80;;
3407;SDS011;1717;50.240;8.406;2022-12-18T14:54:24;43.25;;;22.05;;
3407;SDS011;1717;50.240;8.406;2022-12-18T14:56:54;42.70;;;21.95;;
3407;SDS011;1717;50.240;8.406;2022-12-18T14:59:27;40.15;;;19.92;;
3407;SDS011;1717;50.240;8.406;2022-12-18T15:01:57;44.30;;;21.77;;
3407;SDS011;1717;50.240;8.406;2022-12-18T15:04:27;38.35;;;20.55;;
3407;SDS011;1717;50.240;8.406;2022-12-18T15:07:05;37.28;;;20.67;;
3407;SDS011;1717;50.240;8.406;2022-12-18T15:09:37;35.83;;;20.35;;
3407;SDS011;1717;50.240;8.406;2022-12-18T15:12:15;41.38;;;20.17;;
3407;SDS011;1717;50.240;8.406;2022-12-18T15:14:52;37.47;;;20.88;;
3407;SDS011;1717;50.240;8.406;2022-12-18T15:17:19;44.50;;;20.83;;
3407;SDS011;1717;50.240;8.406;2022-12-18T15:19:48;50.08;;;23.20;;
3407;SDS011;1717;50.240;8.406;2022-12-18T15:22:23;43.95;;;25.23;;
3407;SDS011;1717;50.240;8.406;2022-12-18T15:24:53;41.38;;;22.45;;
3407;SDS011;1717;50.240;8.406;2022-12-18T15:27:22;45.47;;;23.33;;
3407;SDS011;1717;50.240;8.406;2022-12-18T15:30:00;41.28;;;24.15;;
3407;SDS011;1717;50.240;8.406;2022-12-18T15:32:46;48.40;;;23.00;;
3407;SDS011;1717;50.240;8.406;2022-12-18T15:35:15;53.65;;;23.90;;